sensor_id;sensor_type;location;lat;lon;timestamp;P1;durP1;ratioP1;P2;durP2;ratioP2
32932;SDS011;19444;50.518;10.870;2022-08-14T00:02:31;11.65;;;10.45;;
32932;SDS011;19444;50.518;10.870;2022-08-14T00:05:31;12.30;;;10.07;;
32932;SDS011;19444;50.518;10.870;2022-08-14T00:08:28;12.70;;;11.40;;
32932;SDS011;19444;50.518;10.870;2022-08-14T00:11:40;11.60;;;10.52;;
32932;SDS011;19444;50.518;10.870;2022-08-14T00:14:39;11.52;;;10.32;;
32932;SDS011;19444;50.518;10.870;2022-08-14T00:17:37;14.27;;;12.77;;
32932;SDS011;19444;50.518;10.870;2022-08-14T00:20:48;12.50;;;11.20;;
32932;SDS011;19444;50.518;10.870;2022-08-14T00:23:46;12.18;;;10.85;;
32932;SDS011;19444;50.518;10.870;2022-08-14T00:26:49;10.80;;;9.77;;
32932;SDS011;19444;50.518;10.870;2022-08-14T00:32:46;15.10;;;11.95;;
32932;SDS011;19444;50.518;10.870;2022-08-14T00:35:51;11.00;;;9.90;;
32932;SDS011;19444;50.518;10.870;2022-08-14T00:39:10;11.57;;;10.43;;
32932;SDS011;19444;50.518;10.870;2022-08-14T00:42:13;13.18;;;9.05;;
32932;SDS011;19444;50.518;10.870;2022-08-14T00:45:35;23.95;;;17.52;;
32932;SDS011;19444;50.518;10.870;2022-08-14T00:48:32;17.83;;;15.93;;
32932;SDS011;19444;50.518;10.870;2022-08-14T00:51:33;14.25;;;12.75;;
32932;SDS011;19444;50.518;10.870;2022-08-14T00:54:36;12.55;;;11.35;;
32932;SDS011;19444;50.518;10.870;2022-08-14T00:57:35;13.20;;;11.80;;
32932;SDS011;19444;50.518;10.870;2022-08-14T01:00:34;14.05;;;12.65;;
32932;SDS011;19444;50.518;10.870;2022-08-14T01:03:46;10.73;;;9.63;;
32932;SDS011;19444;50.518;10.870;2022-08-14T01:06:48;12.10;;;10.85;;
32932;SDS011;19444;50.518;10.870;2022-08-14T01:09:52;11.18;;;10.07;;
32932;SDS011;19444;50.518;10.870;2022-08-14T01:12:53;9.07;;;8.18;;
32932;SDS011;19444;50.518;10.870;2022-08-14T01:15:52;11.40;;;10.20;;
32932;SDS011;19444;50.518;10.870;2022-08-14T01:18:58;11.00;;;8.68;;
32932;SDS011;19444;50.518;10.870;2022-08-14T01:22:15;11.27;;;9.23;;
32932;SDS011;19444;50.518;10.870;2022-08-14T01:25:14;11.52;;;10.43;;
32932;SDS011;19444;50.518;10.870;2022-08-14T01:28:11;10.90;;;9.90;;
32932;SDS011;19444;50.518;10.870;2022-08-14T01:31:29;12.10;;;10.90;;
32932;SDS011;19444;50.518;10.870;2022-08-14T01:34:33;11.70;;;10.50;;
32932;SDS011;19444;50.518;10.870;2022-08-14T01:37:50;13.95;;;11.98;;
32932;SDS011;19444;50.518;10.870;2022-08-14T01:40:52;14.45;;;12.07;;
32932;SDS011;19444;50.518;10.870;2022-08-14T01:43:53;13.52;;;10.15;;
32932;SDS011;19444;50.518;10.870;2022-08-14T01:46:58;11.70;;;10.50;;
32932;SDS011;19444;50.518;10.870;2022-08-14T01:50:01;13.45;;;10.45;;
32932;SDS011;19444;50.518;10.870;2022-08-14T01:53:00;12.80;;;11.48;;
32932;SDS011;19444;50.518;10.870;2022-08-14T01:55:59;15.40;;;13.13;;
32932;SDS011;19444;50.518;10.870;2022-08-14T01:59:08;11.27;;;9.98;;
32932;SDS011;19444;50.518;10.870;2022-08-14T02:02:32;13.52;;;12.13;;
32932;SDS011;19444;50.518;10.870;2022-08-14T02:05:35;14.77;;;11.52;;
32932;SDS011;19444;50.518;10.870;2022-08-14T02:08:34;19.05;;;16.42;;
32932;SDS011;19444;50.518;10.870;2022-08-14T02:11:48;16.75;;;15.00;;
32932;SDS011;19444;50.518;10.870;2022-08-14T02:14:49;14.07;;;12.65;;
32932;SDS011;19444;50.518;10.870;2022-08-14T02:17:56;11.52;;;10.43;;
32932;SDS011;19444;50.518;10.870;2022-08-14T02:20:57;13.60;;;12.20;;
32932;SDS011;19444;50.518;10.870;2022-08-14T02:23:54;12.30;;;11.00;;
32932;SDS011;19444;50.518;10.870;2022-08-14T02:26:52;10.88;;;9.77;;
32932;SDS011;19444;50.518;10.870;2022-08-14T02:30:09;11.52;;;10.38;;
32932;SDS011;19444;50.518;10.870;2022-08-14T02:33:08;14.00;;;11.90;;
32932;SDS011;19444;50.518;10.870;2022-08-14T02:36:06;11.27;;;10.10;;
32932;SDS011;19444;50.518;10.870;2022-08-14T02:39:24;12.05;;;10.13;;
32932;SDS011;19444;50.518;10.870;2022-08-14T02:42:24;12.00;;;9.60;;
32932;SDS011;19444;50.518;10.870;2022-08-14T02:45:32;12.77;;;11.48;;
32932;SDS011;19444;50.518;10.870;2022-08-14T02:48:40;12.23;;;11.02;;
32932;SDS011;19444;50.518;10.870;2022-08-14T02:51:58;12.63;;;11.38;;
32932;SDS011;19444;50.518;10.870;2022-08-14T02:54:55;12.80;;;11.50;;
32932;SDS011;19444;50.518;10.870;2022-08-14T02:57:52;12.90;;;11.60;;
32932;SDS011;19444;50.518;10.870;2022-08-14T03:00:59;9.73;;;8.73;;
32932;SDS011;19444;50.518;10.870;2022-08-14T03:03:57;12.13;;;10.82;;
32932;SDS011;19444;50.518;10.870;2022-08-14T03:06:54;11.63;;;10.43;;
32932;SDS011;19444;50.518;10.870;2022-08-14T03:10:03;12.02;;;10.93;;
32932;SDS011;19444;50.518;10.870;2022-08-14T03:13:22;12.05;;;10.48;;
32932;SDS011;19444;50.518;10.870;2022-08-14T03:16:20;15.02;;;12.27;;
32932;SDS011;19444;50.518;10.870;2022-08-14T03:19:22;12.25;;;10.95;;
32932;SDS011;19444;50.518;10.870;2022-08-14T03:22:19;13.25;;;11.88;;
32932;SDS011;19444;50.518;10.870;2022-08-14T03:25:16;8.70;;;7.85;;
32932;SDS011;19444;50.518;10.870;2022-08-14T03:28:14;11.85;;;10.02;;
32932;SDS011;19444;50.518;10.870;2022-08-14T03:31:28;12.90;;;11.60;;
32932;SDS011;19444;50.518;10.870;2022-08-14T03:34:25;12.30;;;11.10;;
32932;SDS011;19444;50.518;10.870;2022-08-14T03:37:43;11.23;;;10.13;;
32932;SDS011;19444;50.518;10.870;2022-08-14T03:41:00;10.73;;;9.63;;
32932;SDS011;19444;50.518;10.870;2022-08-14T03:43:58;13.32;;;11.35;;
32932;SDS011;19444;50.518;10.870;2022-08-14T03:47:17;12.02;;;10.82;;
32932;SDS011;19444;50.518;10.870;2022-08-14T03:50:16;15.75;;;11.82;;
32932;SDS011;19444;50.518;10.870;2022-08-14T03:53:26;12.77;;;11.48;;
32932;SDS011;19444;50.518;10.870;2022-08-14T03:56:26;9.63;;;8.70;;
32932;SDS011;19444;50.518;10.870;2022-08-14T03:59:26;11.47;;;10.27;;
32932;SDS011;19444;50.518;10.870;2022-08-14T04:02:23;12.75;;;11.45;;
32932;SDS011;19444;50.518;10.870;2022-08-14T04:05:28;11.38;;;10.27;;
32932;SDS011;19444;50.518;10.870;2022-08-14T04:08:43;14.60;;;12.38;;
32932;SDS011;19444;50.518;10.870;2022-08-14T04:11:41;13.18;;;11.68;;
32932;SDS011;19444;50.518;10.870;2022-08-14T04:14:38;13.23;;;11.93;;
32932;SDS011;19444;50.518;10.870;2022-08-14T04:17:37;14.25;;;11.80;;
32932;SDS011;19444;50.518;10.870;2022-08-14T04:20:36;11.95;;;10.77;;
32932;SDS011;19444;50.518;10.870;2022-08-14T04:23:51;14.10;;;11.95;;
32932;SDS011;19444;50.518;10.870;2022-08-14T04:26:53;14.07;;;11.88;;
32932;SDS011;19444;50.518;10.870;2022-08-14T04:29:50;12.70;;;10.98;;
32932;SDS011;19444;50.518;10.870;2022-08-14T04:32:48;14.68;;;12.05;;
32932;SDS011;19444;50.518;10.870;2022-08-14T04:35:59;11.50;;;10.38;;
32932;SDS011;19444;50.518;10.870;2022-08-14T04:38:57;14.65;;;13.00;;
32932;SDS011;19444;50.518;10.870;2022-08-14T04:42:13;12.57;;;11.27;;
32932;SDS011;19444;50.518;10.870;2022-08-14T04:45:28;10.63;;;9.32;;
32932;SDS011;19444;50.518;10.870;2022-08-14T04:48:31;8.43;;;7.63;;
32932;SDS011;19444;50.518;10.870;2022-08-14T04:51:39;13.13;;;11.75;;
32932;SDS011;19444;50.518;10.870;2022-08-14T04:54:50;11.65;;;10.45;;
32932;SDS011;19444;50.518;10.870;2022-08-14T04:57:50;10.68;;;9.15;;
32932;SDS011;19444;50.518;10.870;2022-08-14T05:00:47;10.00;;;9.07;;
32932;SDS011;19444;50.518;10.870;2022-08-14T05:03:47;13.15;;;11.45;;
32932;SDS011;19444;50.518;10.870;2022-08-14T05:06:45;12.70;;;11.07;;
32932;SDS011;19444;50.518;10.870;2022-08-14T05:09:44;12.88;;;10.73;;
32932;SDS011;19444;50.518;10.870;2022-08-14T05:12:45;13.13;;;11.80;;
32932;SDS011;19444;50.518;10.870;2022-08-14T05:16:02;13.63;;;12.23;;
32932;SDS011;19444;50.518;10.870;2022-08-14T05:19:02;12.75;;;11.45;;
32932;SDS011;19444;50.518;10.870;2022-08-14T05:22:19;13.68;;;11.90;;
32932;SDS011;19444;50.518;10.870;2022-08-14T05:25:17;14.82;;;12.88;;
32932;SDS011;19444;50.518;10.870;2022-08-14T05:28:16;13.95;;;12.38;;
32932;SDS011;19444;50.518;10.870;2022-08-14T05:31:17;14.95;;;12.85;;
32932;SDS011;19444;50.518;10.870;2022-08-14T05:34:16;12.52;;;11.23;;
32932;SDS011;19444;50.518;10.870;2022-08-14T05:37:14;14.50;;;12.93;;
32932;SDS011;19444;50.518;10.870;2022-08-14T05:40:11;13.80;;;12.30;;
32932;SDS011;19444;50.518;10.870;2022-08-14T05:43:07;14.65;;;13.15;;
32932;SDS011;19444;50.518;10.870;2022-08-14T05:46:11;14.10;;;12.70;;
32932;SDS011;19444;50.518;10.870;2022-08-14T05:49:13;14.02;;;12.55;;
32932;SDS011;19444;50.518;10.870;2022-08-14T05:52:11;14.82;;;12.73;;
32932;SDS011;19444;50.518;10.870;2022-08-14T05:55:13;14.13;;;12.65;;
32932;SDS011;19444;50.518;10.870;2022-08-14T05:58:12;14.27;;;12.63;;
32932;SDS011;19444;50.518;10.870;2022-08-14T06:01:11;13.97;;;12.40;;
32932;SDS011;19444;50.518;10.870;2022-08-14T06:04:09;13.77;;;12.38;;
32932;SDS011;19444;50.518;10.870;2022-08-14T06:07:07;14.00;;;12.63;;
32932;SDS011;19444;50.518;10.870;2022-08-14T06:10:05;12.38;;;11.18;;
32932;SDS011;19444;50.518;10.870;2022-08-14T06:13:05;14.82;;;12.13;;
32932;SDS011;19444;50.518;10.870;2022-08-14T06:16:04;13.93;;;12.52;;
32932;SDS011;19444;50.518;10.870;2022-08-14T06:19:01;13.82;;;12.43;;
32932;SDS011;19444;50.518;10.870;2022-08-14T06:22:00;13.75;;;12.10;;
32932;SDS011;19444;50.518;10.870;2022-08-14T06:24:57;12.88;;;11.35;;
32932;SDS011;19444;50.518;10.870;2022-08-14T06:27:56;12.55;;;11.25;;
32932;SDS011;19444;50.518;10.870;2022-08-14T06:30:59;12.70;;;11.50;;
32932;SDS011;19444;50.518;10.870;2022-08-14T06:33:56;13.30;;;11.27;;
32932;SDS011;19444;50.518;10.870;2022-08-14T06:37:12;13.32;;;11.93;;
32932;SDS011;19444;50.518;10.870;2022-08-14T06:40:12;13.02;;;11.27;;
32932;SDS011;19444;50.518;10.870;2022-08-14T06:43:23;12.30;;;11.00;;
32932;SDS011;19444;50.518;10.870;2022-08-14T06:46:28;10.05;;;8.73;;
32932;SDS011;19444;50.518;10.870;2022-08-14T06:49:32;11.63;;;10.38;;
32932;SDS011;19444;50.518;10.870;2022-08-14T06:52:41;14.10;;;10.75;;
32932;SDS011;19444;50.518;10.870;2022-08-14T06:55:46;12.73;;;10.88;;
32932;SDS011;19444;50.518;10.870;2022-08-14T06:58:54;12.93;;;10.07;;
32932;SDS011;19444;50.518;10.870;2022-08-14T07:01:52;12.00;;;10.68;;
32932;SDS011;19444;50.518;10.870;2022-08-14T07:05:13;12.00;;;10.80;;
32932;SDS011;19444;50.518;10.870;2022-08-14T07:08:29;12.15;;;10.85;;
32932;SDS011;19444;50.518;10.870;2022-08-14T07:11:27;10.93;;;9.82;;
32932;SDS011;19444;50.518;10.870;2022-08-14T07:14:24;11.15;;;10.05;;
32932;SDS011;19444;50.518;10.870;2022-08-14T07:17:21;12.98;;;9.90;;
32932;SDS011;19444;50.518;10.870;2022-08-14T07:20:19;10.95;;;9.60;;
32932;SDS011;19444;50.518;10.870;2022-08-14T07:23:27;11.13;;;9.93;;
32932;SDS011;19444;50.518;10.870;2022-08-14T07:26:26;11.02;;;9.90;;
32932;SDS011;19444;50.518;10.870;2022-08-14T07:29:24;10.45;;;9.35;;
32932;SDS011;19444;50.518;10.870;2022-08-14T07:32:24;11.32;;;10.10;;
32932;SDS011;19444;50.518;10.870;2022-08-14T07:35:29;8.93;;;8.02;;
32932;SDS011;19444;50.518;10.870;2022-08-14T07:38:47;9.98;;;9.02;;
32932;SDS011;19444;50.518;10.870;2022-08-14T07:41:47;9.70;;;7.97;;
32932;SDS011;19444;50.518;10.870;2022-08-14T07:44:44;9.32;;;8.07;;
32932;SDS011;19444;50.518;10.870;2022-08-14T07:47:45;9.32;;;8.27;;
32932;SDS011;19444;50.518;10.870;2022-08-14T07:50:43;7.88;;;6.65;;
32932;SDS011;19444;50.518;10.870;2022-08-14T07:53:42;8.57;;;7.57;;
32932;SDS011;19444;50.518;10.870;2022-08-14T07:56:42;8.30;;;7.50;;
32932;SDS011;19444;50.518;10.870;2022-08-14T07:59:45;9.07;;;8.15;;
32932;SDS011;19444;50.518;10.870;2022-08-14T08:02:45;7.82;;;7.03;;
32932;SDS011;19444;50.518;10.870;2022-08-14T08:05:52;8.43;;;7.63;;
32932;SDS011;19444;50.518;10.870;2022-08-14T08:08:49;9.98;;;7.95;;
32932;SDS011;19444;50.518;10.870;2022-08-14T08:11:59;8.65;;;7.80;;
32932;SDS011;19444;50.518;10.870;2022-08-14T08:15:00;10.32;;;7.72;;
32932;SDS011;19444;50.518;10.870;2022-08-14T08:18:03;9.18;;;7.68;;
32932;SDS011;19444;50.518;10.870;2022-08-14T08:21:24;7.97;;;6.43;;
32932;SDS011;19444;50.518;10.870;2022-08-14T08:24:22;7.30;;;6.13;;
32932;SDS011;19444;50.518;10.870;2022-08-14T08:27:19;7.70;;;6.90;;
32932;SDS011;19444;50.518;10.870;2022-08-14T08:30:16;7.60;;;6.82;;
32932;SDS011;19444;50.518;10.870;2022-08-14T08:33:13;8.00;;;7.20;;
32932;SDS011;19444;50.518;10.870;2022-08-14T08:36:11;7.95;;;7.13;;
32932;SDS011;19444;50.518;10.870;2022-08-14T08:39:14;8.23;;;7.05;;
32932;SDS011;19444;50.518;10.870;2022-08-14T08:42:24;7.70;;;7.00;;
32932;SDS011;19444;50.518;10.870;2022-08-14T08:45:34;8.20;;;6.90;;
32932;SDS011;19444;50.518;10.870;2022-08-14T08:48:47;7.72;;;7.00;;
32932;SDS011;19444;50.518;10.870;2022-08-14T08:51:48;7.75;;;6.95;;
32932;SDS011;19444;50.518;10.870;2022-08-14T08:54:53;9.37;;;7.43;;
32932;SDS011;19444;50.518;10.870;2022-08-14T08:57:54;7.22;;;6.53;;
32932;SDS011;19444;50.518;10.870;2022-08-14T09:00:57;6.45;;;5.80;;
32932;SDS011;19444;50.518;10.870;2022-08-14T09:04:02;7.13;;;5.77;;
32932;SDS011;19444;50.518;10.870;2022-08-14T09:07:09;6.07;;;5.15;;
32932;SDS011;19444;50.518;10.870;2022-08-14T09:10:06;5.63;;;5.05;;
32932;SDS011;19444;50.518;10.870;2022-08-14T09:13:05;5.18;;;4.68;;
32932;SDS011;19444;50.518;10.870;2022-08-14T09:16:06;5.60;;;4.53;;
32932;SDS011;19444;50.518;10.870;2022-08-14T09:19:15;6.57;;;5.70;;
32932;SDS011;19444;50.518;10.870;2022-08-14T09:22:12;6.22;;;5.60;;
32932;SDS011;19444;50.518;10.870;2022-08-14T09:25:30;4.30;;;3.90;;
32932;SDS011;19444;50.518;10.870;2022-08-14T09:28:47;5.68;;;5.13;;
32932;SDS011;19444;50.518;10.870;2022-08-14T09:31:45;5.53;;;4.72;;
32932;SDS011;19444;50.518;10.870;2022-08-14T09:34:56;7.38;;;5.50;;
32932;SDS011;19444;50.518;10.870;2022-08-14T09:48:56;6.57;;;5.40;;
32932;SDS011;19444;50.518;10.870;2022-08-14T09:52:09;5.45;;;5.00;;
32932;SDS011;19444;50.518;10.870;2022-08-14T09:55:30;6.53;;;5.80;;
32932;SDS011;19444;50.518;10.870;2022-08-14T09:58:39;6.63;;;5.72;;
32932;SDS011;19444;50.518;10.870;2022-08-14T10:01:42;6.32;;;5.22;;
32932;SDS011;19444;50.518;10.870;2022-08-14T10:05:01;6.75;;;6.05;;
32932;SDS011;19444;50.518;10.870;2022-08-14T10:08:18;6.93;;;6.22;;
32932;SDS011;19444;50.518;10.870;2022-08-14T10:11:22;7.32;;;5.90;;
32932;SDS011;19444;50.518;10.870;2022-08-14T10:14:32;6.18;;;5.57;;
32932;SDS011;19444;50.518;10.870;2022-08-14T10:17:32;6.70;;;5.85;;
32932;SDS011;19444;50.518;10.870;2022-08-14T10:20:38;8.85;;;6.38;;
32932;SDS011;19444;50.518;10.870;2022-08-14T10:23:56;7.13;;;6.15;;
32932;SDS011;19444;50.518;10.870;2022-08-14T10:26:54;7.45;;;6.28;;
32932;SDS011;19444;50.518;10.870;2022-08-14T10:29:57;6.70;;;6.10;;
32932;SDS011;19444;50.518;10.870;2022-08-14T10:32:59;6.93;;;6.22;;
32932;SDS011;19444;50.518;10.870;2022-08-14T10:35:57;7.28;;;6.57;;
32932;SDS011;19444;50.518;10.870;2022-08-14T10:38:59;5.55;;;5.05;;
32932;SDS011;19444;50.518;10.870;2022-08-14T10:42:01;6.45;;;5.85;;
32932;SDS011;19444;50.518;10.870;2022-08-14T10:45:19;6.43;;;5.55;;
32932;SDS011;19444;50.518;10.870;2022-08-14T10:48:20;7.15;;;6.45;;
32932;SDS011;19444;50.518;10.870;2022-08-14T10:51:32;7.00;;;6.30;;
32932;SDS011;19444;50.518;10.870;2022-08-14T10:54:38;7.20;;;6.50;;
32932;SDS011;19444;50.518;10.870;2022-08-14T10:57:46;5.82;;;5.25;;
32932;SDS011;19444;50.518;10.870;2022-08-14T11:00:56;4.97;;;4.47;;
32932;SDS011;19444;50.518;10.870;2022-08-14T11:03:56;6.25;;;5.45;;
32932;SDS011;19444;50.518;10.870;2022-08-14T11:06:54;4.90;;;4.50;;
32932;SDS011;19444;50.518;10.870;2022-08-14T11:09:52;6.25;;;5.60;;
32932;SDS011;19444;50.518;10.870;2022-08-14T11:12:55;6.88;;;6.18;;
32932;SDS011;19444;50.518;10.870;2022-08-14T11:15:54;6.38;;;5.78;;
32932;SDS011;19444;50.518;10.870;2022-08-14T11:18:55;6.60;;;5.85;;
32932;SDS011;19444;50.518;10.870;2022-08-14T11:21:54;5.93;;;5.30;;
32932;SDS011;19444;50.518;10.870;2022-08-14T11:24:58;6.82;;;6.05;;
32932;SDS011;19444;50.518;10.870;2022-08-14T11:28:01;5.95;;;5.28;;
32932;SDS011;19444;50.518;10.870;2022-08-14T11:31:09;4.55;;;4.15;;
32932;SDS011;19444;50.518;10.870;2022-08-14T11:34:10;6.63;;;6.03;;
32932;SDS011;19444;50.518;10.870;2022-08-14T11:37:28;5.10;;;4.63;;
32932;SDS011;19444;50.518;10.870;2022-08-14T11:40:36;5.80;;;5.30;;
32932;SDS011;19444;50.518;10.870;2022-08-14T11:43:38;6.70;;;6.05;;
32932;SDS011;19444;50.518;10.870;2022-08-14T11:46:53;5.78;;;5.20;;
32932;SDS011;19444;50.518;10.870;2022-08-14T11:49:50;5.75;;;4.80;;
32932;SDS011;19444;50.518;10.870;2022-08-14T11:52:48;7.15;;;6.50;;
32932;SDS011;19444;50.518;10.870;2022-08-14T11:55:58;5.65;;;5.15;;
32932;SDS011;19444;50.518;10.870;2022-08-14T11:59:01;6.32;;;5.72;;
32932;SDS011;19444;50.518;10.870;2022-08-14T12:02:11;7.80;;;6.50;;
32932;SDS011;19444;50.518;10.870;2022-08-14T12:05:31;7.00;;;6.30;;
32932;SDS011;19444;50.518;10.870;2022-08-14T12:08:37;7.85;;;6.80;;
32932;SDS011;19444;50.518;10.870;2022-08-14T12:11:39;5.70;;;5.13;;
32932;SDS011;19444;50.518;10.870;2022-08-14T12:14:50;8.63;;;6.85;;
32932;SDS011;19444;50.518;10.870;2022-08-14T12:17:55;6.53;;;5.93;;
32932;SDS011;19444;50.518;10.870;2022-08-14T12:20:53;5.97;;;5.30;;
32932;SDS011;19444;50.518;10.870;2022-08-14T12:24:06;5.40;;;5.00;;
32932;SDS011;19444;50.518;10.870;2022-08-14T12:27:41;6.63;;;6.03;;
32932;SDS011;19444;50.518;10.870;2022-08-14T12:30:49;8.13;;;7.10;;
32932;SDS011;19444;50.518;10.870;2022-08-14T12:33:58;6.47;;;5.88;;
32932;SDS011;19444;50.518;10.870;2022-08-14T12:37:07;7.25;;;6.55;;
32932;SDS011;19444;50.518;10.870;2022-08-14T12:40:08;5.32;;;4.82;;
32932;SDS011;19444;50.518;10.870;2022-08-14T12:43:15;5.95;;;5.45;;
32932;SDS011;19444;50.518;10.870;2022-08-14T12:46:20;7.18;;;6.57;;
32932;SDS011;19444;50.518;10.870;2022-08-14T12:49:23;7.97;;;7.17;;
32932;SDS011;19444;50.518;10.870;2022-08-14T12:52:37;7.25;;;6.57;;
32932;SDS011;19444;50.518;10.870;2022-08-14T12:55:58;7.38;;;6.40;;
32932;SDS011;19444;50.518;10.870;2022-08-14T12:59:16;8.50;;;7.30;;
32932;SDS011;19444;50.518;10.870;2022-08-14T13:02:34;5.75;;;5.18;;
32932;SDS011;19444;50.518;10.870;2022-08-14T13:05:37;6.85;;;6.25;;
32932;SDS011;19444;50.518;10.870;2022-08-14T13:08:36;7.43;;;6.82;;
32932;SDS011;19444;50.518;10.870;2022-08-14T13:11:51;5.82;;;5.18;;
32932;SDS011;19444;50.518;10.870;2022-08-14T13:15:09;6.78;;;6.18;;
32932;SDS011;19444;50.518;10.870;2022-08-14T13:18:09;5.55;;;4.93;;
32932;SDS011;19444;50.518;10.870;2022-08-14T13:21:12;7.57;;;6.88;;
32932;SDS011;19444;50.518;10.870;2022-08-14T13:24:12;7.93;;;7.20;;
32932;SDS011;19444;50.518;10.870;2022-08-14T13:27:10;8.13;;;7.43;;
32932;SDS011;19444;50.518;10.870;2022-08-14T13:30:09;7.07;;;6.47;;
32932;SDS011;19444;50.518;10.870;2022-08-14T13:33:19;8.35;;;7.55;;
32932;SDS011;19444;50.518;10.870;2022-08-14T13:36:17;8.45;;;7.22;;
32932;SDS011;19444;50.518;10.870;2022-08-14T13:39:33;6.97;;;6.32;;
32932;SDS011;19444;50.518;10.870;2022-08-14T13:42:32;7.63;;;6.68;;
32932;SDS011;19444;50.518;10.870;2022-08-14T13:45:31;7.60;;;6.90;;
32932;SDS011;19444;50.518;10.870;2022-08-14T13:48:48;6.53;;;5.93;;
32932;SDS011;19444;50.518;10.870;2022-08-14T13:51:47;6.82;;;5.90;;
32932;SDS011;19444;50.518;10.870;2022-08-14T13:54:49;9.43;;;7.88;;
32932;SDS011;19444;50.518;10.870;2022-08-14T13:57:50;9.32;;;7.60;;
32932;SDS011;19444;50.518;10.870;2022-08-14T14:00:59;6.93;;;6.28;;
32932;SDS011;19444;50.518;10.870;2022-08-14T14:04:01;10.63;;;7.68;;
32932;SDS011;19444;50.518;10.870;2022-08-14T14:07:06;7.63;;;6.93;;
32932;SDS011;19444;50.518;10.870;2022-08-14T14:10:08;8.40;;;7.47;;
32932;SDS011;19444;50.518;10.870;2022-08-14T14:13:05;7.65;;;6.95;;
32932;SDS011;19444;50.518;10.870;2022-08-14T14:16:02;8.18;;;7.25;;
32932;SDS011;19444;50.518;10.870;2022-08-14T14:19:01;8.10;;;7.13;;
32932;SDS011;19444;50.518;10.870;2022-08-14T14:22:05;7.03;;;6.30;;
32932;SDS011;19444;50.518;10.870;2022-08-14T14:25:05;6.65;;;6.03;;
32932;SDS011;19444;50.518;10.870;2022-08-14T14:28:02;6.43;;;5.82;;
32932;SDS011;19444;50.518;10.870;2022-08-14T14:31:02;5.85;;;5.32;;
32932;SDS011;19444;50.518;10.870;2022-08-14T14:34:03;6.90;;;6.25;;
32932;SDS011;19444;50.518;10.870;2022-08-14T14:37:20;7.60;;;6.90;;
32932;SDS011;19444;50.518;10.870;2022-08-14T14:40:19;8.00;;;7.20;;
32932;SDS011;19444;50.518;10.870;2022-08-14T14:43:37;7.57;;;6.88;;
32932;SDS011;19444;50.518;10.870;2022-08-14T14:46:41;7.68;;;6.88;;
32932;SDS011;19444;50.518;10.870;2022-08-14T14:49:48;6.85;;;5.20;;
32932;SDS011;19444;50.518;10.870;2022-08-14T14:52:50;7.45;;;6.72;;
32932;SDS011;19444;50.518;10.870;2022-08-14T14:56:08;6.28;;;5.72;;
32932;SDS011;19444;50.518;10.870;2022-08-14T14:59:26;7.97;;;7.18;;
32932;SDS011;19444;50.518;10.870;2022-08-14T15:02:34;6.88;;;6.28;;
32932;SDS011;19444;50.518;10.870;2022-08-14T15:05:33;7.25;;;6.47;;
32932;SDS011;19444;50.518;10.870;2022-08-14T15:08:31;6.25;;;5.68;;
32932;SDS011;19444;50.518;10.870;2022-08-14T15:11:48;7.75;;;7.05;;
32932;SDS011;19444;50.518;10.870;2022-08-14T15:14:45;8.57;;;7.68;;
32932;SDS011;19444;50.518;10.870;2022-08-14T15:17:52;7.38;;;6.78;;
32932;SDS011;19444;50.518;10.870;2022-08-14T15:20:51;7.32;;;6.38;;
32932;SDS011;19444;50.518;10.870;2022-08-14T15:23:58;6.13;;;5.63;;
32932;SDS011;19444;50.518;10.870;2022-08-14T15:26:54;7.10;;;6.30;;
32932;SDS011;19444;50.518;10.870;2022-08-14T15:29:54;6.72;;;6.13;;
32932;SDS011;19444;50.518;10.870;2022-08-14T15:32:53;7.38;;;6.53;;
32932;SDS011;19444;50.518;10.870;2022-08-14T15:35:51;7.90;;;7.15;;
32932;SDS011;19444;50.518;10.870;2022-08-14T15:38:54;6.47;;;5.78;;
32932;SDS011;19444;50.518;10.870;2022-08-14T15:41:51;7.90;;;7.10;;
32932;SDS011;19444;50.518;10.870;2022-08-14T15:44:53;7.65;;;6.93;;
32932;SDS011;19444;50.518;10.870;2022-08-14T15:47:54;8.07;;;6.88;;
32932;SDS011;19444;50.518;10.870;2022-08-14T15:50:52;7.63;;;6.82;;
32932;SDS011;19444;50.518;10.870;2022-08-14T15:53:50;8.13;;;7.40;;
32932;SDS011;19444;50.518;10.870;2022-08-14T15:56:54;7.53;;;6.82;;
32932;SDS011;19444;50.518;10.870;2022-08-14T15:59:56;8.00;;;7.20;;
32932;SDS011;19444;50.518;10.870;2022-08-14T16:03:31;7.25;;;6.55;;
32932;SDS011;19444;50.518;10.870;2022-08-14T16:06:32;7.75;;;6.57;;
32932;SDS011;19444;50.518;10.870;2022-08-14T16:09:29;7.18;;;6.47;;
32932;SDS011;19444;50.518;10.870;2022-08-14T16:12:27;7.05;;;6.45;;
32932;SDS011;19444;50.518;10.870;2022-08-14T16:15:37;7.73;;;6.93;;
32932;SDS011;19444;50.518;10.870;2022-08-14T16:18:48;7.50;;;6.80;;
32932;SDS011;19444;50.518;10.870;2022-08-14T16:21:46;7.00;;;6.30;;
32932;SDS011;19444;50.518;10.870;2022-08-14T16:25:05;7.13;;;6.53;;
32932;SDS011;19444;50.518;10.870;2022-08-14T16:28:03;7.78;;;7.07;;
32932;SDS011;19444;50.518;10.870;2022-08-14T16:31:02;7.35;;;6.60;;
32932;SDS011;19444;50.518;10.870;2022-08-14T16:34:05;8.75;;;6.57;;
32932;SDS011;19444;50.518;10.870;2022-08-14T16:37:22;7.13;;;6.43;;
32932;SDS011;19444;50.518;10.870;2022-08-14T16:40:40;7.50;;;6.70;;
32932;SDS011;19444;50.518;10.870;2022-08-14T16:43:39;9.30;;;7.22;;
32932;SDS011;19444;50.518;10.870;2022-08-14T16:46:40;7.93;;;7.15;;
32932;SDS011;19444;50.518;10.870;2022-08-14T16:49:45;8.02;;;6.97;;
32932;SDS011;19444;50.518;10.870;2022-08-14T16:53:02;8.07;;;7.27;;
32932;SDS011;19444;50.518;10.870;2022-08-14T16:56:11;7.38;;;6.60;;
32932;SDS011;19444;50.518;10.870;2022-08-14T16:59:19;7.90;;;7.13;;
32932;SDS011;19444;50.518;10.870;2022-08-14T17:02:40;7.15;;;6.47;;
32932;SDS011;19444;50.518;10.870;2022-08-14T17:05:38;7.88;;;7.05;;
32932;SDS011;19444;50.518;10.870;2022-08-14T17:08:38;7.95;;;7.18;;
32932;SDS011;19444;50.518;10.870;2022-08-14T17:11:52;7.88;;;7.18;;
32932;SDS011;19444;50.518;10.870;2022-08-14T17:18:09;7.35;;;6.65;;
32932;SDS011;19444;50.518;10.870;2022-08-14T17:21:22;8.32;;;7.28;;
32932;SDS011;19444;50.518;10.870;2022-08-14T17:24:32;7.70;;;7.00;;
32932;SDS011;19444;50.518;10.870;2022-08-14T17:31:34;9.45;;;7.50;;
32932;SDS011;19444;50.518;10.870;2022-08-14T17:34:52;8.38;;;7.53;;
32932;SDS011;19444;50.518;10.870;2022-08-14T17:37:50;7.63;;;6.93;;
32932;SDS011;19444;50.518;10.870;2022-08-14T17:41:22;8.10;;;7.30;;
32932;SDS011;19444;50.518;10.870;2022-08-14T17:44:32;7.55;;;6.85;;
32932;SDS011;19444;50.518;10.870;2022-08-14T17:47:41;8.85;;;7.35;;
32932;SDS011;19444;50.518;10.870;2022-08-14T17:53:57;8.10;;;7.22;;
32932;SDS011;19444;50.518;10.870;2022-08-14T17:57:00;8.90;;;8.10;;
32932;SDS011;19444;50.518;10.870;2022-08-14T18:00:06;8.35;;;7.55;;
32932;SDS011;19444;50.518;10.870;2022-08-14T18:03:10;8.23;;;7.28;;
32932;SDS011;19444;50.518;10.870;2022-08-14T18:06:28;8.07;;;7.25;;
32932;SDS011;19444;50.518;10.870;2022-08-14T18:09:46;8.57;;;7.68;;
32932;SDS011;19444;50.518;10.870;2022-08-14T18:12:53;8.80;;;7.90;;
32932;SDS011;19444;50.518;10.870;2022-08-14T18:15:51;8.48;;;7.60;;
32932;SDS011;19444;50.518;10.870;2022-08-14T18:18:51;7.85;;;7.15;;
32932;SDS011;19444;50.518;10.870;2022-08-14T18:21:48;9.20;;;8.13;;
32932;SDS011;19444;50.518;10.870;2022-08-14T18:24:52;11.07;;;8.43;;
32932;SDS011;19444;50.518;10.870;2022-08-14T18:27:50;11.40;;;8.93;;